createdAt,value
2019-02-05T00:00:16.931Z,13.20
2019-02-05T00:02:45.152Z,15.47
2019-02-05T00:05:13.669Z,14.53
2019-02-05T00:07:41.957Z,13.90
2019-02-05T00:10:10.271Z,14.07
2019-02-05T00:12:38.488Z,15.07
2019-02-05T00:15:07.000Z,14.10
2019-02-05T00:17:35.219Z,10.27
2019-02-05T00:20:04.835Z,13.23
2019-02-05T00:22:33.052Z,12.87
2019-02-05T00:25:01.304Z,11.47
2019-02-05T00:27:29.518Z,14.10
2019-02-05T00:29:57.774Z,15.73
2019-02-05T00:32:26.063Z,15.03
2019-02-05T00:34:54.378Z,14.80
2019-02-05T00:37:22.827Z,14.13
2019-02-05T00:39:51.111Z,14.07
2019-02-05T00:42:19.366Z,14.97
2019-02-05T00:44:47.575Z,13.33
2019-02-05T00:47:15.814Z,9.00
2019-02-05T00:49:44.040Z,13.53
2019-02-05T00:52:12.792Z,14.07
2019-02-05T00:54:41.011Z,10.07
2019-02-05T00:57:09.415Z,13.10
2019-02-05T00:59:37.627Z,10.67
2019-02-05T01:02:05.944Z,13.20
2019-02-05T01:04:34.230Z,10.00
2019-02-05T01:07:02.544Z,8.60
2019-02-05T01:09:30.955Z,12.97
2019-02-05T01:11:59.271Z,11.20
2019-02-05T01:14:27.494Z,10.33
2019-02-05T01:16:55.743Z,11.67
2019-02-05T01:19:24.031Z,15.00
2019-02-05T01:21:52.276Z,8.10
2019-02-05T01:24:20.799Z,10.17
2019-02-05T01:26:49.045Z,13.63
2019-02-05T01:29:17.259Z,13.87
2019-02-05T01:31:45.507Z,15.20
2019-02-05T01:34:13.723Z,16.07
2019-02-05T01:36:41.971Z,14.93
2019-02-05T01:39:10.191Z,13.97
2019-02-05T01:41:38.485Z,13.80
2019-02-05T01:44:06.736Z,13.47
2019-02-05T01:46:34.951Z,11.53
2019-02-05T01:49:03.269Z,14.03
2019-02-05T01:51:31.489Z,15.13
2019-02-05T01:53:59.740Z,16.27
2019-02-05T01:56:28.255Z,15.00
2019-02-05T01:58:56.496Z,16.63
2019-02-05T02:01:24.708Z,15.27
2019-02-05T02:03:52.959Z,15.00
2019-02-05T02:06:21.181Z,16.03
2019-02-05T02:08:49.442Z,17.30
2019-02-05T02:11:17.734Z,15.67
2019-02-05T02:13:46.188Z,18.00
2019-02-05T02:16:14.415Z,17.70
2019-02-05T02:18:42.670Z,17.30
2019-02-05T02:21:10.965Z,16.10
2019-02-05T02:23:39.289Z,16.33
2019-02-05T02:26:07.514Z,18.53
2019-02-05T02:28:35.765Z,16.87
2019-02-05T02:31:04.069Z,16.87
2019-02-05T02:33:32.317Z,16.43
2019-02-05T02:36:00.541Z,17.20
2019-02-05T02:38:28.802Z,16.93
2019-02-05T02:40:57.035Z,18.20
2019-02-05T02:43:25.285Z,17.33
2019-02-05T02:45:53.919Z,17.10
2019-02-05T02:48:22.151Z,16.03
2019-02-05T02:50:50.404Z,17.13
2019-02-05T02:53:18.708Z,17.87
2019-02-05T02:55:46.979Z,17.57
2019-02-05T02:58:15.201Z,14.33
2019-02-05T03:00:43.462Z,17.53
2019-02-05T03:03:11.896Z,16.10
2019-02-05T03:05:40.145Z,16.10
2019-02-05T03:08:08.375Z,15.70
2019-02-05T03:10:36.621Z,17.37
2019-02-05T03:13:04.921Z,15.87
2019-02-05T03:15:33.175Z,17.43
2019-02-05T03:18:01.400Z,16.30
2019-02-05T03:20:30.154Z,16.33
2019-02-05T03:22:58.455Z,16.60
2019-02-05T03:25:26.885Z,15.53
2019-02-05T03:27:55.267Z,15.47
2019-02-05T03:30:24.636Z,18.40
2019-02-05T03:32:53.904Z,16.33
2019-02-05T03:35:22.321Z,15.90
2019-02-05T03:37:50.824Z,17.10
2019-02-05T03:40:26.832Z,15.93
2019-02-05T03:42:55.058Z,16.90
2019-02-05T03:45:24.181Z,17.73
2019-02-05T03:47:53.983Z,16.87
2019-02-05T03:50:22.302Z,15.93
2019-02-05T03:53:01.074Z,17.13
2019-02-05T03:55:33.573Z,17.50
2019-02-05T03:58:18.606Z,16.77
2019-02-05T04:00:57.317Z,16.93
2019-02-05T04:03:33.282Z,16.37
2019-02-05T04:06:15.325Z,16.50
2019-02-05T04:08:45.041Z,16.20
2019-02-05T04:11:17.525Z,16.43
2019-02-05T04:14:04.233Z,18.00
2019-02-05T04:16:34.025Z,15.50
2019-02-05T04:19:20.171Z,16.17
2019-02-05T04:21:50.164Z,15.53
2019-02-05T04:24:23.101Z,17.97
2019-02-05T04:27:07.845Z,15.73
2019-02-05T04:29:40.174Z,16.40
2019-02-05T04:32:26.794Z,16.27
2019-02-05T04:35:05.458Z,18.37
2019-02-05T04:37:41.456Z,17.27
2019-02-05T04:40:17.542Z,16.67
2019-02-05T04:43:02.382Z,16.50
2019-02-05T04:45:34.257Z,15.50
2019-02-05T04:48:12.361Z,16.20
2019-02-05T04:50:42.120Z,14.90
2019-02-05T04:53:14.718Z,16.33
2019-02-05T04:55:50.444Z,15.13
2019-02-05T04:58:35.268Z,18.80
2019-02-05T05:01:21.561Z,17.03
2019-02-05T05:03:54.089Z,16.90
2019-02-05T05:06:40.463Z,18.07
2019-02-05T05:09:10.247Z,17.70
2019-02-05T05:11:40.986Z,17.03
2019-02-05T05:14:08.694Z,17.07
2019-02-05T05:16:36.928Z,19.00
2019-02-05T05:19:05.359Z,17.43
2019-02-05T05:21:33.573Z,17.97
2019-02-05T05:24:01.897Z,17.17
2019-02-05T05:26:30.193Z,19.47
2019-02-05T05:28:58.519Z,16.67
2019-02-05T05:31:26.728Z,18.07
2019-02-05T05:33:54.990Z,18.33
2019-02-05T05:36:23.211Z,18.73
2019-02-05T05:38:51.457Z,19.33
2019-02-05T05:41:19.882Z,19.37
2019-02-05T05:43:48.139Z,17.37
2019-02-05T05:46:16.372Z,17.60
2019-02-05T05:48:44.620Z,19.17
2019-02-05T05:51:12.916Z,18.83
2019-02-05T05:53:41.162Z,18.47
2019-02-05T05:56:09.464Z,17.97
2019-02-05T05:58:38.025Z,15.20
2019-02-05T06:01:06.316Z,18.17
2019-02-05T06:03:34.565Z,16.83
2019-02-05T06:06:02.956Z,16.57
2019-02-05T06:08:31.209Z,18.83
2019-02-05T06:10:59.537Z,17.73
2019-02-05T06:13:27.816Z,18.70
2019-02-05T06:15:56.321Z,15.77
2019-02-05T06:18:24.545Z,17.20
2019-02-05T06:20:52.798Z,17.87
2019-02-05T06:23:21.102Z,17.60
2019-02-05T06:25:49.350Z,16.17
2019-02-05T06:28:17.640Z,18.43
2019-02-05T06:30:45.904Z,18.23
2019-02-05T06:33:14.425Z,18.10
2019-02-05T06:35:42.676Z,16.57
2019-02-05T06:38:10.911Z,18.60
2019-02-05T06:40:39.229Z,15.70
2019-02-05T06:43:07.529Z,17.37
2019-02-05T06:45:35.784Z,18.30
2019-02-05T06:48:04.374Z,18.13
2019-02-05T06:50:33.035Z,16.37
2019-02-05T06:53:01.330Z,17.87
2019-02-05T06:55:29.576Z,17.47
2019-02-05T06:57:57.801Z,17.23
2019-02-05T07:00:26.124Z,18.97
2019-02-05T07:02:54.421Z,18.73
2019-02-05T07:05:22.741Z,17.80
2019-02-05T07:07:51.260Z,18.20
2019-02-05T07:10:23.326Z,18.60
2019-02-05T07:12:51.616Z,19.33
2019-02-05T07:15:19.962Z,18.43
2019-02-05T07:17:50.127Z,18.03
2019-02-05T07:20:18.235Z,21.30
2019-02-05T07:22:46.557Z,19.37
2019-02-05T07:25:19.088Z,19.53
2019-02-05T07:27:47.408Z,17.87
2019-02-05T07:30:17.168Z,18.43
2019-02-05T07:32:45.488Z,19.97
2019-02-05T07:35:13.988Z,19.80
2019-02-05T07:37:42.242Z,18.60
2019-02-05T07:40:11.939Z,18.63
2019-02-05T07:42:40.565Z,17.67
2019-02-05T07:45:10.556Z,18.77
2019-02-05T07:47:38.856Z,19.30
2019-02-05T07:50:08.650Z,17.83
2019-02-05T07:52:36.905Z,17.90
2019-02-05T07:55:06.901Z,19.13
2019-02-05T07:57:35.160Z,19.83
2019-02-05T08:00:05.225Z,17.87
2019-02-05T08:02:33.478Z,18.60
2019-02-05T08:05:01.705Z,18.93
2019-02-05T08:07:30.025Z,18.77
2019-02-05T08:09:58.249Z,19.70
2019-02-05T08:12:26.577Z,20.50
2019-02-05T08:14:54.865Z,16.33
2019-02-05T08:17:23.124Z,16.10
2019-02-05T08:19:51.657Z,17.23
2019-02-05T08:22:20.110Z,15.93
2019-02-05T08:24:48.337Z,16.90
2019-02-05T08:27:16.593Z,15.50
2019-02-05T08:29:44.816Z,15.93
2019-02-05T08:32:13.075Z,14.90
2019-02-05T08:34:41.302Z,13.83
2019-02-05T08:37:09.555Z,13.20
2019-02-05T08:39:38.010Z,13.30
2019-02-05T08:42:06.233Z,11.87
2019-02-05T08:44:34.561Z,14.20
2019-02-05T08:47:02.793Z,17.57
2019-02-05T08:49:31.032Z,15.87
2019-02-05T08:51:59.337Z,17.10
2019-02-05T08:54:27.584Z,15.37
2019-02-05T08:56:56.180Z,14.97
2019-02-05T08:59:24.428Z,16.23
2019-02-05T09:01:52.656Z,14.37
2019-02-05T09:04:20.973Z,17.03
2019-02-05T09:06:49.197Z,15.67
2019-02-05T09:09:17.449Z,15.83
2019-02-05T09:11:45.677Z,16.93
2019-02-05T09:14:13.935Z,16.40
2019-02-05T09:16:42.452Z,16.27
2019-02-05T09:19:10.714Z,16.07
2019-02-05T09:21:38.937Z,14.50
2019-02-05T09:24:07.269Z,17.73
2019-02-05T09:26:35.567Z,15.80
2019-02-05T09:29:03.953Z,14.80
2019-02-05T09:31:32.278Z,16.23
2019-02-05T09:34:00.968Z,13.43
2019-02-05T09:36:29.225Z,14.13
2019-02-05T09:38:57.453Z,14.90
2019-02-05T09:41:25.769Z,13.17
2019-02-05T09:43:53.996Z,15.13
2019-02-05T09:46:22.252Z,14.97
2019-02-05T09:48:50.481Z,15.43
2019-02-05T09:51:18.728Z,15.13
2019-02-05T09:53:46.979Z,15.33
2019-02-05T09:56:15.201Z,16.90
2019-02-05T09:58:43.426Z,15.87
2019-02-05T10:01:11.795Z,14.17
2019-02-05T10:03:40.005Z,15.03
2019-02-05T10:06:08.256Z,16.77
2019-02-05T10:08:36.485Z,13.83
2019-02-05T10:11:05.135Z,13.70
2019-02-05T10:13:33.354Z,15.00
2019-02-05T10:16:01.609Z,15.50
2019-02-05T10:18:29.837Z,15.47
2019-02-05T10:20:58.158Z,14.03
2019-02-05T10:23:26.558Z,14.97
2019-02-05T10:25:54.805Z,14.33
2019-02-05T10:28:23.333Z,13.90
2019-02-05T10:30:51.588Z,14.20
2019-02-05T10:33:19.805Z,17.33
2019-02-05T10:35:48.132Z,15.03
2019-02-05T10:38:16.424Z,14.63
2019-02-05T10:40:44.677Z,15.23
2019-02-05T10:43:12.972Z,14.60
2019-02-05T10:45:41.292Z,14.80
2019-02-05T10:48:09.785Z,14.77
2019-02-05T10:50:38.273Z,14.37
2019-02-05T10:53:06.593Z,14.97
2019-02-05T10:55:34.822Z,12.40
2019-02-05T10:58:03.146Z,14.03
2019-02-05T11:00:32.000Z,14.40
2019-02-05T11:03:01.425Z,14.20
2019-02-05T11:05:30.117Z,15.17
2019-02-05T11:07:58.440Z,13.70
2019-02-05T11:10:26.737Z,12.47
2019-02-05T11:12:54.993Z,13.23
2019-02-05T11:15:24.756Z,14.07
2019-02-05T11:17:53.008Z,12.30
2019-02-05T11:20:22.313Z,14.37
2019-02-05T11:22:50.867Z,15.33
2019-02-05T11:25:19.267Z,17.23
2019-02-05T11:27:47.512Z,16.40
2019-02-05T11:30:20.367Z,8.87
2019-02-05T11:32:47.426Z,18.57
2019-02-05T11:35:15.812Z,15.90
2019-02-05T11:37:44.141Z,16.33
2019-02-05T11:40:14.105Z,13.00
2019-02-05T11:42:42.424Z,13.93
2019-02-05T11:45:12.520Z,11.10
2019-02-05T11:47:40.776Z,12.83
2019-02-05T11:50:10.674Z,15.30
2019-02-05T11:52:38.988Z,7.80
2019-02-05T11:55:08.855Z,15.23
2019-02-05T11:57:37.096Z,20.73
2019-02-05T12:00:07.029Z,11.07
2019-02-05T12:02:35.361Z,15.00
2019-02-05T12:05:04.461Z,16.73
2019-02-05T12:07:32.713Z,16.07
2019-02-05T12:10:01.006Z,14.30
2019-02-05T12:12:29.257Z,15.13
2019-02-05T12:14:57.493Z,15.90
2019-02-05T12:17:25.753Z,14.40
2019-02-05T12:19:55.644Z,10.30
2019-02-05T12:22:24.173Z,14.73
2019-02-05T12:24:52.434Z,14.70
2019-02-05T12:27:20.665Z,15.87
2019-02-05T12:29:48.917Z,15.10
2019-02-05T12:32:17.536Z,16.60
2019-02-05T12:34:45.798Z,16.27
2019-02-05T12:37:14.083Z,15.27
2019-02-05T12:39:42.402Z,16.60
2019-02-05T12:42:10.633Z,15.60
2019-02-05T12:44:38.955Z,20.77
2019-02-05T12:47:07.261Z,11.53
2019-02-05T12:49:35.982Z,15.07
2019-02-05T12:52:04.473Z,14.20
2019-02-05T12:54:32.724Z,16.43
2019-02-05T12:57:00.956Z,17.77
2019-02-05T12:59:29.208Z,17.47
2019-02-05T13:01:57.436Z,13.80
2019-02-05T13:04:25.697Z,15.27
2019-02-05T13:06:54.221Z,16.10
2019-02-05T13:09:22.609Z,17.07
2019-02-05T13:11:50.828Z,13.53
2019-02-05T13:14:19.184Z,16.67
2019-02-05T13:16:47.521Z,17.37
2019-02-05T13:19:15.869Z,15.27
2019-02-05T13:21:44.091Z,14.43
2019-02-05T13:24:12.347Z,12.53
2019-02-05T13:26:40.570Z,16.03
2019-02-05T13:29:08.829Z,14.53
2019-02-05T13:31:37.122Z,17.63
2019-02-05T13:34:05.744Z,16.00
2019-02-05T13:36:33.973Z,15.43
2019-02-05T13:39:02.760Z,13.07
2019-02-05T13:41:30.990Z,16.80
2019-02-05T13:43:59.210Z,16.57
2019-02-05T13:46:27.469Z,15.07
2019-02-05T13:48:55.685Z,14.77
2019-02-05T13:51:24.004Z,14.23
2019-02-05T13:53:52.696Z,15.87
2019-02-05T13:56:20.949Z,18.03
2019-02-05T13:58:49.174Z,16.87
2019-02-05T14:01:20.139Z,18.70
2019-02-05T14:03:47.304Z,14.63
2019-02-05T14:06:15.630Z,16.80
2019-02-05T14:08:43.922Z,17.03
2019-02-05T14:11:12.549Z,18.80
2019-02-05T14:13:40.841Z,17.20
2019-02-05T14:16:09.265Z,14.20
2019-02-05T14:18:37.495Z,17.33
2019-02-05T14:21:05.750Z,16.27
2019-02-05T14:23:33.973Z,15.37
2019-02-05T14:26:02.296Z,12.37
2019-02-05T14:28:30.720Z,15.10
2019-02-05T14:30:59.036Z,14.33
2019-02-05T14:33:27.257Z,5.67
2019-02-05T14:35:55.632Z,15.43
2019-02-05T14:38:24.010Z,14.73
2019-02-05T14:40:52.269Z,14.73
2019-02-05T14:43:20.563Z,12.17
2019-02-05T14:45:48.813Z,10.47
2019-02-05T14:48:17.049Z,13.53
2019-02-05T14:50:46.464Z,15.50
2019-02-05T14:53:14.968Z,16.13
2019-02-05T14:55:43.220Z,16.30
2019-02-05T14:58:12.112Z,15.70
2019-02-05T15:00:40.637Z,15.23
2019-02-05T15:03:09.934Z,15.43
2019-02-05T15:05:38.437Z,15.07
2019-02-05T15:08:07.048Z,18.10
2019-02-05T15:10:35.285Z,17.67
2019-02-05T15:13:03.805Z,14.73
2019-02-05T15:15:32.328Z,15.67
2019-02-05T15:18:00.585Z,17.93
2019-02-05T15:20:33.133Z,15.67
2019-02-05T15:23:01.772Z,16.47
2019-02-05T15:25:29.993Z,14.77
2019-02-05T15:27:58.257Z,15.07
2019-02-05T15:30:28.220Z,16.20
2019-02-05T15:33:13.193Z,18.17
2019-02-05T15:35:43.128Z,15.80
2019-02-05T15:38:11.386Z,17.33
2019-02-05T15:40:39.680Z,18.47
2019-02-05T15:43:11.515Z,16.40
2019-02-05T15:45:39.736Z,18.97
2019-02-05T15:48:08.065Z,18.40
2019-02-05T15:50:36.290Z,16.93
2019-02-05T15:53:04.715Z,16.63
2019-02-05T15:55:32.936Z,17.20
2019-02-05T15:58:01.398Z,19.07
2019-02-05T16:00:29.689Z,16.23
2019-02-05T16:02:58.009Z,17.37
2019-02-05T16:05:26.237Z,15.53
2019-02-05T16:07:54.563Z,17.60
2019-02-05T16:10:24.321Z,19.80
2019-02-05T16:12:52.581Z,16.73
2019-02-05T16:15:20.889Z,16.77
2019-02-05T16:17:49.304Z,13.20
2019-02-05T16:20:18.405Z,14.33
2019-02-05T16:22:46.927Z,18.10
2019-02-05T16:25:15.220Z,17.50
2019-02-05T16:27:43.645Z,15.03
2019-02-05T16:30:19.540Z,16.17
2019-02-05T16:32:47.866Z,16.17
2019-02-05T16:35:16.088Z,17.03
2019-02-05T16:37:44.409Z,18.63
2019-02-05T16:40:14.169Z,17.47
2019-02-05T16:42:42.494Z,16.77
2019-02-05T16:45:12.629Z,17.87
2019-02-05T16:47:40.850Z,18.17
2019-02-05T16:50:10.709Z,16.77
2019-02-05T16:52:39.065Z,15.50
2019-02-05T16:55:07.593Z,15.73
2019-02-05T16:57:35.817Z,13.77
2019-02-05T17:00:11.610Z,14.83
2019-02-05T17:02:39.836Z,15.87
2019-02-05T17:05:08.352Z,16.07
2019-02-05T17:07:36.581Z,16.20
2019-02-05T17:10:06.464Z,17.07
2019-02-05T17:12:34.765Z,16.40
2019-02-05T17:15:04.645Z,16.93
2019-02-05T17:17:32.869Z,17.90
2019-02-05T17:20:01.198Z,19.50
2019-02-05T17:22:29.420Z,18.93
2019-02-05T17:24:57.740Z,17.50
2019-02-05T17:27:25.969Z,15.90
2019-02-05T17:29:54.224Z,17.30
2019-02-05T17:32:22.449Z,17.57
2019-02-05T17:34:50.704Z,15.60
2019-02-05T17:37:19.001Z,16.17
2019-02-05T17:39:47.248Z,17.57
2019-02-05T17:42:15.474Z,17.67
2019-02-05T17:44:43.725Z,19.87
2019-02-05T17:47:12.254Z,17.03
2019-02-05T17:49:40.572Z,17.83
2019-02-05T17:52:08.969Z,17.70
2019-02-05T17:54:37.292Z,21.77
2019-02-05T17:57:05.700Z,18.83
2019-02-05T17:59:34.417Z,16.93
2019-02-05T18:02:02.718Z,17.57
2019-02-05T18:04:31.240Z,15.67
2019-02-05T18:06:59.841Z,18.47
2019-02-05T18:09:28.096Z,17.87
2019-02-05T18:11:56.592Z,15.87
2019-02-05T18:14:25.057Z,14.63
2019-02-05T18:16:53.555Z,17.97
2019-02-05T18:19:22.349Z,17.97
2019-02-05T18:21:50.953Z,16.23
2019-02-05T18:24:19.508Z,18.30
2019-02-05T18:26:48.223Z,17.00
2019-02-05T18:29:16.772Z,17.70
2019-02-05T18:31:45.292Z,17.47
2019-02-05T18:34:14.841Z,16.60
2019-02-05T18:36:43.858Z,17.77
2019-02-05T18:39:12.448Z,17.43
2019-02-05T18:41:41.048Z,17.57
2019-02-05T18:44:09.609Z,17.03
2019-02-05T18:46:38.221Z,17.03
2019-02-05T18:49:08.572Z,16.37
2019-02-05T18:51:37.020Z,17.03
2019-02-05T18:54:05.881Z,17.57
2019-02-05T18:56:34.602Z,17.97
2019-02-05T18:59:03.461Z,19.03
2019-02-05T19:01:32.173Z,20.40
2019-02-05T19:04:00.724Z,21.70
2019-02-05T19:06:29.451Z,19.10
2019-02-05T19:08:57.997Z,18.90
2019-02-05T19:11:26.611Z,18.60
2019-02-05T19:13:55.465Z,19.13
2019-02-05T19:16:24.086Z,18.43
2019-02-05T19:18:52.741Z,16.20
2019-02-05T19:21:21.395Z,15.37
2019-02-05T19:23:51.689Z,17.60
2019-02-05T19:26:20.570Z,17.87
2019-02-05T19:28:49.229Z,16.63
2019-02-05T19:31:19.286Z,16.13
2019-02-05T19:33:48.357Z,18.03
2019-02-05T19:36:17.234Z,16.80
2019-02-05T19:38:46.346Z,15.93
2019-02-05T19:41:15.113Z,17.87
2019-02-05T19:43:43.920Z,16.17
2019-02-05T19:46:20.005Z,18.37
2019-02-05T19:48:50.117Z,17.13
2019-02-05T19:51:19.272Z,23.43
2019-02-05T19:53:48.185Z,20.00
2019-02-05T19:56:17.053Z,20.27
2019-02-05T19:58:45.669Z,22.03
2019-02-05T20:01:14.329Z,18.50
2019-02-05T20:03:43.036Z,19.43
2019-02-05T20:06:11.992Z,18.60
2019-02-05T20:08:40.912Z,21.13
2019-02-05T20:11:09.472Z,18.57
2019-02-05T20:13:40.365Z,19.00
2019-02-05T20:16:09.192Z,18.50
2019-02-05T20:18:38.119Z,19.57
2019-02-05T20:21:06.973Z,19.90
2019-02-05T20:23:35.597Z,18.93
2019-02-05T20:26:04.761Z,18.57
2019-02-05T20:28:33.486Z,17.53
2019-02-05T20:31:02.332Z,19.27
2019-02-05T20:33:30.957Z,18.10
2019-02-05T20:35:59.821Z,17.10
2019-02-05T20:38:28.739Z,15.90
2019-02-05T20:40:57.594Z,16.03
2019-02-05T20:43:26.509Z,17.90
2019-02-05T20:45:55.676Z,17.57
2019-02-05T20:48:24.433Z,18.07
2019-02-05T20:50:53.273Z,18.80
2019-02-05T20:53:21.838Z,18.73
2019-02-05T20:55:50.553Z,17.27
2019-02-05T20:58:19.312Z,17.47
2019-02-05T21:00:48.033Z,18.43
2019-02-05T21:03:16.589Z,20.43
2019-02-05T21:05:45.202Z,20.13
2019-02-05T21:08:13.857Z,18.30
2019-02-05T21:10:42.460Z,19.00
2019-02-05T21:13:11.129Z,20.43
2019-02-05T21:15:39.512Z,27.70
2019-02-05T21:18:08.082Z,19.77
2019-02-05T21:20:36.695Z,20.90
2019-02-05T21:23:05.354Z,20.20
2019-02-05T21:25:33.870Z,19.87
2019-02-05T21:28:02.316Z,17.03
2019-02-05T21:30:30.920Z,19.17
2019-02-05T21:32:59.485Z,19.67
2019-02-05T21:35:28.100Z,19.07
2019-02-05T21:37:56.784Z,19.20
2019-02-05T21:40:25.717Z,19.20
2019-02-05T21:42:54.015Z,17.83
2019-02-05T21:45:23.806Z,19.17
2019-02-05T21:47:52.072Z,18.00
2019-02-05T21:50:23.621Z,18.37
2019-02-05T21:52:52.202Z,17.87
2019-02-05T21:55:24.151Z,19.93
2019-02-05T21:57:52.445Z,21.47
2019-02-05T22:00:31.191Z,21.10
2019-02-05T22:02:59.497Z,19.17
2019-02-05T22:05:28.601Z,20.73
2019-02-05T22:07:57.046Z,21.03
2019-02-05T22:10:25.413Z,19.63
2019-02-05T22:12:53.657Z,20.47
2019-02-05T22:15:22.348Z,20.47
2019-02-05T22:17:50.678Z,19.60
2019-02-05T22:20:20.441Z,16.00
2019-02-05T22:22:48.856Z,18.87
2019-02-05T22:25:21.201Z,16.83
2019-02-05T22:27:49.536Z,19.17
2019-02-05T22:30:21.633Z,21.67
2019-02-05T22:32:49.881Z,18.27
2019-02-05T22:35:18.880Z,21.33
2019-02-05T22:37:47.606Z,20.63
2019-02-05T22:40:16.803Z,18.63
2019-02-05T22:42:45.126Z,20.40
2019-02-05T22:45:14.412Z,18.97
2019-02-05T22:47:42.664Z,19.00
2019-02-05T22:50:12.769Z,19.30
2019-02-05T22:52:41.033Z,18.93
2019-02-05T22:55:09.721Z,19.67
2019-02-05T22:57:37.984Z,18.67
2019-02-05T23:00:10.877Z,14.03
2019-02-05T23:02:39.292Z,17.97
2019-02-05T23:05:21.224Z,18.67
2019-02-05T23:07:49.685Z,17.87
2019-02-05T23:10:19.445Z,20.47
2019-02-05T23:12:48.046Z,18.97
2019-02-05T23:15:17.460Z,18.57
2019-02-05T23:17:45.789Z,19.10
2019-02-05T23:20:15.485Z,20.77
2019-02-05T23:22:43.805Z,17.40
2019-02-05T23:25:12.198Z,17.27
2019-02-05T23:27:40.725Z,18.30
2019-02-05T23:30:16.396Z,19.77
2019-02-05T23:32:44.648Z,18.77
2019-02-05T23:35:12.949Z,18.60
2019-02-05T23:37:41.241Z,18.57
2019-02-05T23:40:10.365Z,19.17
2019-02-05T23:42:38.717Z,18.80
2019-02-05T23:45:08.613Z,18.97
2019-02-05T23:47:36.841Z,17.97
2019-02-05T23:50:10.792Z,18.47
2019-02-05T23:52:39.430Z,19.90
2019-02-05T23:55:09.244Z,19.83
2019-02-05T23:57:37.498Z,18.17
